createdAt,value
2019-03-22T00:00:27.983Z,101356.80
2019-03-22T00:02:55.229Z,101353.71
2019-03-22T00:05:22.543Z,101354.75
2019-03-22T00:07:49.805Z,101357.84
2019-03-22T00:10:17.146Z,101357.52
2019-03-22T00:12:44.355Z,101357.11
2019-03-22T00:15:11.646Z,101356.16
2019-03-22T00:17:38.760Z,101357.45
2019-03-22T00:20:06.131Z,101358.39
2019-03-22T00:22:33.452Z,101355.68
2019-03-22T00:25:00.661Z,101352.24
2019-03-22T00:27:27.887Z,101357.40
2019-03-22T00:29:55.104Z,101354.95
2019-03-22T00:32:22.438Z,101356.02
2019-03-22T00:34:49.762Z,101348.82
2019-03-22T00:37:17.058Z,101349.20
2019-03-22T00:39:44.408Z,101351.51
2019-03-22T00:42:11.730Z,101347.36
2019-03-22T00:44:39.071Z,101359.45
2019-03-22T00:47:06.378Z,101355.74
2019-03-22T00:49:33.572Z,101354.19
2019-03-22T00:52:00.796Z,101359.05
2019-03-22T00:54:27.972Z,101347.95
2019-03-22T00:56:55.319Z,101348.36
2019-03-22T00:59:22.633Z,101340.05
2019-03-22T01:01:50.014Z,101340.08
2019-03-22T01:04:17.211Z,101339.27
2019-03-22T01:06:44.430Z,101341.70
2019-03-22T01:09:11.730Z,101342.77
2019-03-22T01:11:39.103Z,101335.13
2019-03-22T01:14:06.411Z,101342.43
2019-03-22T01:16:33.920Z,101336.51
2019-03-22T01:19:01.228Z,101341.23
2019-03-22T01:21:28.542Z,101334.13
2019-03-22T01:23:56.144Z,101336.14
2019-03-22T01:26:23.462Z,101340.73
2019-03-22T01:28:50.758Z,101333.48
2019-03-22T01:31:18.068Z,101332.27
2019-03-22T01:33:45.610Z,101329.59
2019-03-22T01:36:13.916Z,101328.53
2019-03-22T01:38:41.461Z,101331.84
2019-03-22T01:41:08.793Z,101326.53
2019-03-22T01:43:36.109Z,101329.97
2019-03-22T01:46:03.436Z,101335.63
2019-03-22T01:48:30.763Z,101330.09
2019-03-22T01:50:57.980Z,101336.25
2019-03-22T01:53:25.325Z,101332.41
2019-03-22T01:55:52.629Z,101333.91
2019-03-22T01:58:20.004Z,101339.56
2019-03-22T02:00:47.407Z,101338.65
2019-03-22T02:03:14.726Z,101335.59
2019-03-22T02:05:41.923Z,101328.72
2019-03-22T02:08:09.144Z,101328.72
2019-03-22T02:10:36.496Z,101324.34
2019-03-22T02:13:03.876Z,101328.49
2019-03-22T02:15:31.190Z,101330.36
2019-03-22T02:17:58.533Z,101329.53
2019-03-22T02:20:26.002Z,101324.89
2019-03-22T02:22:53.334Z,101319.53
2019-03-22T02:25:26.787Z,101315.83
2019-03-22T02:28:03.649Z,101315.83
2019-03-22T02:30:23.266Z,101316.12
2019-03-22T02:32:50.496Z,101307.22
2019-03-22T02:35:28.252Z,101309.39
2019-03-22T02:37:47.052Z,101302.92
2019-03-22T02:40:14.775Z,101304.08
2019-03-22T02:42:42.098Z,101299.89
2019-03-22T02:45:09.820Z,101299.89
2019-03-22T02:47:37.148Z,101300.33
2019-03-22T02:50:17.182Z,101302.26
2019-03-22T02:52:34.476Z,101303.47
2019-03-22T02:55:01.780Z,101307.84
2019-03-22T02:57:28.902Z,101302.20
2019-03-22T02:59:56.131Z,101302.84
2019-03-22T03:02:23.434Z,101300.00
2019-03-22T03:04:50.761Z,101299.29
2019-03-22T03:07:18.064Z,101293.59
2019-03-22T03:09:45.300Z,101297.22
2019-03-22T03:12:12.530Z,101296.92
2019-03-22T03:14:39.740Z,101288.69
2019-03-22T03:17:06.984Z,101288.69
2019-03-22T03:19:34.314Z,101291.14
2019-03-22T03:22:01.537Z,101291.06
2019-03-22T03:24:28.922Z,101291.06
2019-03-22T03:26:56.231Z,101285.65
2019-03-22T03:29:23.600Z,101285.65
2019-03-22T03:31:50.916Z,101282.02
2019-03-22T03:34:18.155Z,101283.80
2019-03-22T03:36:45.467Z,101296.61
2019-03-22T03:39:12.808Z,101295.14
2019-03-22T03:41:40.103Z,101286.37
2019-03-22T03:44:07.435Z,101288.41
2019-03-22T03:46:34.665Z,101285.66
2019-03-22T03:49:02.313Z,101281.17
2019-03-22T03:51:29.537Z,101278.17
2019-03-22T03:53:56.761Z,101278.17
2019-03-22T03:56:23.876Z,101286.55
2019-03-22T03:58:52.929Z,101280.38
2019-03-22T04:01:20.431Z,101286.45
2019-03-22T04:03:47.765Z,101284.17
2019-03-22T04:06:15.076Z,101276.34
2019-03-22T04:08:42.402Z,101276.34
2019-03-22T04:11:09.632Z,101281.59
2019-03-22T04:13:36.864Z,101283.74
2019-03-22T04:16:04.075Z,101288.89
2019-03-22T04:18:31.304Z,101284.48
2019-03-22T04:20:58.432Z,101290.91
2019-03-22T04:23:25.732Z,101285.91
2019-03-22T04:25:53.070Z,101288.46
2019-03-22T04:28:20.267Z,101275.92
2019-03-22T04:30:47.956Z,101291.26
2019-03-22T04:33:15.061Z,101283.31
2019-03-22T04:35:42.202Z,101284.29
2019-03-22T04:38:09.408Z,101291.45
2019-03-22T04:40:36.663Z,101278.05
2019-03-22T04:43:03.967Z,101278.05
2019-03-22T04:45:33.197Z,101280.49
2019-03-22T04:48:05.454Z,101287.66
2019-03-22T04:50:36.603Z,101323.36
2019-03-22T04:53:04.826Z,101277.56
2019-03-22T04:55:34.212Z,101276.97
2019-03-22T04:58:02.686Z,101276.97
2019-03-22T05:00:30.831Z,101278.24
2019-03-22T05:02:58.633Z,101274.20
2019-03-22T05:05:25.958Z,101270.16
2019-03-22T05:07:53.381Z,101270.16
2019-03-22T05:10:22.652Z,101261.11
2019-03-22T05:12:51.566Z,101276.70
2019-03-22T05:15:20.311Z,101276.41
2019-03-22T05:17:48.028Z,101276.41
2019-03-22T05:20:17.163Z,101282.36
2019-03-22T05:22:45.368Z,101288.22
2019-03-22T05:25:13.412Z,101289.26
2019-03-22T05:27:43.775Z,101293.80
2019-03-22T05:30:36.395Z,101308.34
2019-03-22T05:33:03.702Z,101310.61
2019-03-22T05:35:30.921Z,101310.61
2019-03-22T05:37:58.128Z,101305.34
2019-03-22T05:40:25.351Z,101310.13
2019-03-22T05:42:52.608Z,101306.69
2019-03-22T05:45:19.818Z,101307.48
2019-03-22T05:47:47.018Z,101311.77
2019-03-22T05:50:14.141Z,101317.20
2019-03-22T05:52:41.448Z,101328.17
2019-03-22T05:55:08.766Z,101326.44
2019-03-22T05:57:36.134Z,101323.88
2019-03-22T06:00:04.620Z,101328.63
2019-03-22T06:02:31.843Z,101347.15
2019-03-22T06:04:59.210Z,101347.15
2019-03-22T06:07:45.809Z,101349.39
2019-03-22T06:10:13.209Z,101349.44
2019-03-22T06:12:40.524Z,101348.69
2019-03-22T06:15:08.946Z,101352.11
2019-03-22T06:17:36.265Z,101350.57
2019-03-22T06:20:03.809Z,101350.50
2019-03-22T06:22:31.131Z,101346.08
2019-03-22T06:24:58.361Z,101349.10
2019-03-22T06:27:25.643Z,101350.81
2019-03-22T06:29:54.379Z,101346.67
2019-03-22T06:32:22.058Z,101317.66
2019-03-22T06:34:49.348Z,101349.52
2019-03-22T06:37:16.579Z,101355.97
2019-03-22T06:39:43.796Z,101347.50
2019-03-22T06:42:11.128Z,101354.09
2019-03-22T06:44:38.414Z,101353.20
2019-03-22T06:47:05.723Z,101349.38
2019-03-22T06:49:32.928Z,101356.36
2019-03-22T06:52:00.240Z,101323.52
2019-03-22T06:54:31.731Z,101360.12
2019-03-22T06:56:56.707Z,101364.68
2019-03-22T06:59:23.915Z,101362.42
2019-03-22T07:01:51.529Z,101362.72
2019-03-22T07:04:18.737Z,101372.28
2019-03-22T07:06:45.962Z,101369.89
2019-03-22T07:09:13.284Z,101365.78
2019-03-22T07:11:41.846Z,101359.80
2019-03-22T07:14:09.303Z,101367.50
2019-03-22T07:16:36.558Z,101356.89
2019-03-22T07:19:04.352Z,101361.22
2019-03-22T07:21:31.580Z,101357.94
2019-03-22T07:23:58.869Z,101356.97
2019-03-22T07:26:26.181Z,101357.14
2019-03-22T07:28:53.387Z,101349.17
2019-03-22T07:31:20.606Z,101347.62
2019-03-22T07:33:47.916Z,101344.27
2019-03-22T07:36:15.184Z,101346.24
2019-03-22T07:38:42.457Z,101351.18
2019-03-22T07:41:09.784Z,101347.77
2019-03-22T07:43:36.997Z,101350.62
2019-03-22T07:46:04.204Z,101347.48
2019-03-22T07:48:31.406Z,101351.07
2019-03-22T07:50:58.726Z,101355.13
2019-03-22T07:53:25.816Z,101346.73
2019-03-22T07:55:53.108Z,101344.40
2019-03-22T07:58:20.361Z,101340.97
2019-03-22T08:00:47.667Z,101332.23
2019-03-22T08:03:14.959Z,101336.01
2019-03-22T08:05:51.035Z,101330.21
2019-03-22T08:08:11.502Z,101322.18
2019-03-22T08:10:38.706Z,101320.15
2019-03-22T08:13:06.027Z,101316.38
2019-03-22T08:15:33.384Z,101322.17
2019-03-22T08:18:00.633Z,101325.64
2019-03-22T08:20:28.582Z,101325.60
2019-03-22T08:22:56.242Z,101313.86
2019-03-22T08:25:23.428Z,101303.73
2019-03-22T08:27:50.722Z,101293.83
2019-03-22T08:30:18.024Z,101294.32
2019-03-22T08:32:45.334Z,101296.72
2019-03-22T08:35:12.631Z,101291.59
2019-03-22T08:37:51.788Z,101304.06
2019-03-22T08:40:09.077Z,101302.44
2019-03-22T08:42:36.397Z,101302.09
2019-03-22T08:45:04.060Z,101298.95
2019-03-22T08:47:34.258Z,101288.16
2019-03-22T08:50:00.590Z,101277.75
2019-03-22T08:52:27.704Z,101282.98
2019-03-22T08:54:54.867Z,101271.66
2019-03-22T08:57:24.864Z,101269.38
2019-03-22T08:59:51.509Z,101273.61
2019-03-22T09:02:18.898Z,101272.61
2019-03-22T09:04:46.013Z,101269.92
2019-03-22T09:07:13.355Z,101270.69
2019-03-22T09:09:41.871Z,101264.97
2019-03-22T09:12:09.377Z,101263.69
2019-03-22T09:14:36.651Z,101257.22
2019-03-22T09:17:03.946Z,101260.94
2019-03-22T09:19:31.259Z,101278.05
2019-03-22T09:21:59.741Z,101247.28
2019-03-22T09:24:38.613Z,101240.63
2019-03-22T09:26:56.309Z,101243.58
2019-03-22T09:29:23.568Z,101241.95
2019-03-22T09:31:53.588Z,101247.57
2019-03-22T09:34:32.926Z,101246.80
2019-03-22T09:36:48.959Z,101241.65
2019-03-22T09:39:16.332Z,101240.84
2019-03-22T09:41:43.505Z,101236.57
2019-03-22T09:44:10.855Z,101230.83
2019-03-22T09:46:38.192Z,101230.73
2019-03-22T09:49:05.524Z,101222.20
2019-03-22T09:51:32.855Z,101220.59
2019-03-22T09:54:00.139Z,101217.89
2019-03-22T09:56:27.454Z,101214.56
2019-03-22T09:58:54.734Z,101211.19
2019-03-22T10:01:24.007Z,101204.91
2019-03-22T10:03:51.081Z,101203.70
2019-03-22T10:06:18.307Z,101200.89
2019-03-22T10:08:46.364Z,101204.03
2019-03-22T10:11:13.714Z,101199.16
2019-03-22T10:13:41.026Z,101192.60
2019-03-22T10:16:08.365Z,101197.06
2019-03-22T10:18:36.980Z,101185.92
2019-03-22T10:21:04.497Z,101187.55
2019-03-22T10:23:31.848Z,101193.08
2019-03-22T10:25:59.072Z,101186.03
2019-03-22T10:28:26.370Z,101174.75
2019-03-22T10:30:53.697Z,101173.23
2019-03-22T10:33:22.909Z,101179.30
2019-03-22T10:35:50.305Z,101171.38
2019-03-22T10:38:30.692Z,101175.81
2019-03-22T10:40:47.294Z,101178.16
2019-03-22T10:43:14.530Z,101173.19
2019-03-22T10:45:41.796Z,101170.77
2019-03-22T10:48:09.119Z,101166.41
2019-03-22T10:50:36.462Z,101168.99
2019-03-22T10:53:03.764Z,101167.17
2019-03-22T10:55:31.007Z,101163.38
2019-03-22T10:57:58.323Z,101151.42
2019-03-22T11:00:25.634Z,101158.76
2019-03-22T11:02:52.934Z,101147.91
2019-03-22T11:05:20.233Z,101139.78
2019-03-22T11:07:47.546Z,101142.63
2019-03-22T11:10:15.076Z,101139.11
2019-03-22T11:12:42.449Z,101134.41
2019-03-22T11:15:10.346Z,101125.88
2019-03-22T11:17:37.669Z,101135.48
2019-03-22T11:20:06.842Z,101136.48
2019-03-22T11:22:34.144Z,101134.53
2019-03-22T11:25:01.522Z,101128.64
2019-03-22T11:27:28.815Z,101126.48
2019-03-22T11:29:56.148Z,101117.02
2019-03-22T11:32:23.487Z,101118.05
2019-03-22T11:34:50.702Z,101127.08
2019-03-22T11:37:18.035Z,101110.63
2019-03-22T11:39:45.259Z,101103.33
2019-03-22T11:42:12.569Z,101100.70
2019-03-22T11:44:39.789Z,101102.80
2019-03-22T11:47:07.088Z,101089.93
2019-03-22T11:49:34.412Z,101088.09
2019-03-22T11:52:01.723Z,101085.75
2019-03-22T11:54:29.048Z,101079.80
2019-03-22T11:56:56.271Z,101070.05
2019-03-22T11:59:23.660Z,101070.11
2019-03-22T12:01:50.942Z,101077.42
2019-03-22T12:04:18.283Z,101063.70
2019-03-22T12:06:45.598Z,101060.00
2019-03-22T12:09:12.920Z,101045.83
2019-03-22T12:11:42.085Z,101058.56
2019-03-22T12:14:09.454Z,101053.21
2019-03-22T12:16:36.920Z,101054.36
2019-03-22T12:19:04.339Z,101045.22
2019-03-22T12:21:51.264Z,101036.73
2019-03-22T12:24:18.791Z,101036.17
2019-03-22T12:26:46.219Z,101038.47
2019-03-22T12:29:13.555Z,101019.59
2019-03-22T12:31:40.860Z,101019.59
2019-03-22T12:34:08.189Z,101022.30
2019-03-22T12:36:35.404Z,101015.70
2019-03-22T12:39:04.810Z,101020.34
2019-03-22T12:41:32.101Z,101015.39
2019-03-22T12:43:59.335Z,101014.10
2019-03-22T12:46:26.682Z,101006.14
2019-03-22T12:48:53.984Z,101009.59
2019-03-22T12:51:21.198Z,101002.83
2019-03-22T12:53:48.509Z,100999.56
2019-03-22T12:56:15.864Z,100989.37
2019-03-22T12:58:43.106Z,100989.63
2019-03-22T13:01:10.426Z,100983.60
2019-03-22T13:03:37.835Z,100972.87
2019-03-22T13:06:05.179Z,100980.69
2019-03-22T13:08:33.850Z,100965.95
2019-03-22T13:11:01.285Z,100965.95
2019-03-22T13:13:28.510Z,100976.11
2019-03-22T13:15:55.866Z,100964.47
2019-03-22T13:18:23.037Z,100961.53
2019-03-22T13:20:51.210Z,100959.53
2019-03-22T13:23:18.393Z,100956.34
2019-03-22T13:25:45.723Z,100946.63
2019-03-22T13:28:12.935Z,100949.44
2019-03-22T13:30:40.262Z,100936.92
2019-03-22T13:33:07.599Z,100937.17
2019-03-22T13:35:34.926Z,100942.35
2019-03-22T13:38:05.041Z,100935.17
2019-03-22T13:40:32.404Z,100927.41
2019-03-22T13:42:59.599Z,100924.27
2019-03-22T13:45:28.027Z,100925.11
2019-03-22T13:47:55.370Z,100921.45
2019-03-22T13:50:22.926Z,100928.75
2019-03-22T13:52:50.314Z,100920.16
2019-03-22T13:55:17.935Z,100928.81
2019-03-22T13:57:45.260Z,100913.82
2019-03-22T14:00:12.711Z,100913.14
2019-03-22T14:02:40.031Z,100908.73
2019-03-22T14:05:07.769Z,100901.26
2019-03-22T14:07:35.224Z,100913.05
2019-03-22T14:10:03.242Z,100897.67
2019-03-22T14:12:36.955Z,100907.70
2019-03-22T14:14:59.671Z,100888.31
2019-03-22T14:17:26.990Z,100893.56
2019-03-22T14:19:54.307Z,100888.44
2019-03-22T14:22:21.607Z,100890.39
2019-03-22T14:24:49.246Z,100893.29
2019-03-22T14:27:16.563Z,100882.67
2019-03-22T14:29:43.872Z,100887.72
2019-03-22T14:32:11.202Z,100875.02
2019-03-22T14:34:38.412Z,100868.98
2019-03-22T14:37:05.743Z,100873.96
2019-03-22T14:39:33.094Z,100874.58
2019-03-22T14:42:00.724Z,100871.95
2019-03-22T14:44:28.365Z,100872.05
2019-03-22T14:46:55.586Z,100856.98
2019-03-22T14:49:22.795Z,100843.91
2019-03-22T14:51:50.956Z,100856.22
2019-03-22T14:54:18.318Z,100849.47
2019-03-22T14:56:45.560Z,100843.65
2019-03-22T14:59:12.776Z,100848.96
2019-03-22T15:01:40.007Z,100830.89
2019-03-22T15:04:07.317Z,100844.86
2019-03-22T15:06:34.648Z,100837.50
2019-03-22T15:09:01.945Z,100828.02
2019-03-22T15:11:29.262Z,100819.52
2019-03-22T15:14:01.486Z,100829.55
2019-03-22T15:16:54.474Z,100826.47
2019-03-22T15:19:39.098Z,100829.84
2019-03-22T15:22:17.433Z,100817.51
2019-03-22T15:25:05.664Z,100819.66
2019-03-22T15:27:52.533Z,100806.26
2019-03-22T15:30:38.086Z,100803.45
2019-03-22T15:33:34.315Z,100802.13
2019-03-22T15:36:25.098Z,100811.80
2019-03-22T15:39:10.563Z,100803.13
2019-03-22T15:41:37.754Z,100799.73
2019-03-22T15:44:05.132Z,100798.09
2019-03-22T15:46:32.460Z,100798.14
2019-03-22T15:48:59.684Z,100792.86
2019-03-22T15:51:26.974Z,100803.30
2019-03-22T15:53:54.186Z,100794.49
2019-03-22T15:56:21.539Z,100793.56
2019-03-22T15:58:48.842Z,100797.47
2019-03-22T16:01:15.942Z,100794.91
2019-03-22T16:03:44.469Z,100789.94
2019-03-22T16:06:12.184Z,100780.49
2019-03-22T16:08:39.392Z,100779.55
2019-03-22T16:11:06.696Z,100775.63
2019-03-22T16:13:34.600Z,100778.19
2019-03-22T16:16:02.022Z,100778.39
2019-03-22T16:18:29.503Z,100769.47
2019-03-22T16:21:00.012Z,100769.68
2019-03-22T16:23:25.951Z,100768.34
2019-03-22T16:25:53.154Z,100764.48
2019-03-22T16:28:20.372Z,100764.78
2019-03-22T16:30:47.677Z,100763.39
2019-03-22T16:33:14.898Z,100769.20
2019-03-22T16:35:42.209Z,100769.40
2019-03-22T16:38:09.323Z,100763.24
2019-03-22T16:40:36.633Z,100770.83
2019-03-22T16:43:03.961Z,100770.53
2019-03-22T16:45:38.921Z,100773.69
2019-03-22T16:48:06.474Z,100767.29
2019-03-22T16:50:33.770Z,100766.99
2019-03-22T16:53:01.097Z,100766.56
2019-03-22T16:55:28.402Z,100763.48
2019-03-22T16:57:55.868Z,100766.43
2019-03-22T17:00:23.186Z,100767.12
2019-03-22T17:02:50.583Z,100760.49
2019-03-22T17:05:20.330Z,100763.16
2019-03-22T17:07:48.127Z,100764.62
2019-03-22T17:10:15.444Z,100759.69
2019-03-22T17:12:43.089Z,100764.16
2019-03-22T17:15:10.443Z,100764.81
2019-03-22T17:17:37.968Z,100765.87
2019-03-22T17:20:06.855Z,100758.87
2019-03-22T17:22:34.303Z,100763.91
2019-03-22T17:25:01.619Z,100761.88
2019-03-22T17:27:28.921Z,100759.30
2019-03-22T17:29:56.213Z,100750.70
2019-03-22T17:32:23.434Z,100755.35
2019-03-22T17:34:51.879Z,100754.09
2019-03-22T17:37:19.369Z,100755.00
2019-03-22T17:39:46.741Z,100745.95
2019-03-22T17:42:14.059Z,100746.39
2019-03-22T17:44:41.404Z,100750.08
2019-03-22T17:47:08.705Z,100742.97
2019-03-22T17:49:36.031Z,100749.88
2019-03-22T17:52:03.362Z,100749.72
2019-03-22T17:54:30.671Z,100746.86
2019-03-22T17:56:58.027Z,100749.72
2019-03-22T17:59:25.243Z,100749.14
2019-03-22T18:01:52.647Z,100740.25
2019-03-22T18:04:24.052Z,100744.59
2019-03-22T18:06:49.173Z,100745.39
2019-03-22T18:09:16.487Z,100742.08
2019-03-22T18:11:43.787Z,100742.47
2019-03-22T18:14:11.131Z,100746.36
2019-03-22T18:16:38.444Z,100751.52
2019-03-22T18:19:05.734Z,100750.05
2019-03-22T18:21:33.058Z,100757.79
2019-03-22T18:24:00.385Z,100754.77
2019-03-22T18:26:27.512Z,100754.57
2019-03-22T18:28:54.712Z,100764.44
2019-03-22T18:31:21.918Z,100755.97
2019-03-22T18:33:49.231Z,100767.32
2019-03-22T18:36:16.548Z,100760.03
2019-03-22T18:38:44.099Z,100760.27
2019-03-22T18:41:11.531Z,100759.05
2019-03-22T18:43:38.866Z,100760.45
2019-03-22T18:46:06.145Z,100765.17
2019-03-22T18:48:33.596Z,100764.53
2019-03-22T18:51:00.912Z,100767.71
2019-03-22T18:53:28.127Z,100764.27
2019-03-22T18:55:55.428Z,100625.31
2019-03-22T18:58:23.769Z,100761.23
2019-03-22T19:00:51.163Z,100772.36
2019-03-22T19:03:18.386Z,100766.94
2019-03-22T19:05:45.757Z,100768.77
2019-03-22T19:08:13.090Z,100768.37
2019-03-22T19:10:40.305Z,100767.95
2019-03-22T19:13:07.877Z,100769.37
2019-03-22T19:15:35.239Z,100768.60
2019-03-22T19:18:02.449Z,100771.06
2019-03-22T19:20:29.778Z,100767.66
2019-03-22T19:22:57.109Z,100774.32
2019-03-22T19:25:24.413Z,100772.11
2019-03-22T19:27:51.750Z,100773.91
2019-03-22T19:30:19.066Z,100770.47
2019-03-22T19:32:46.373Z,100765.39
2019-03-22T19:35:13.826Z,100810.78
2019-03-22T19:37:41.140Z,100768.38
2019-03-22T19:40:08.797Z,100771.44
2019-03-22T19:42:36.113Z,100767.99
2019-03-22T19:45:04.192Z,100764.82
2019-03-22T19:47:31.413Z,100768.59
2019-03-22T19:49:58.725Z,100766.45
2019-03-22T19:52:26.113Z,100768.20
2019-03-22T19:54:53.313Z,100774.83
2019-03-22T19:57:20.555Z,100769.43
2019-03-22T19:59:47.856Z,100766.80
2019-03-22T20:02:15.062Z,100766.28
2019-03-22T20:04:42.296Z,100770.34
2019-03-22T20:07:09.618Z,100763.73
2019-03-22T20:09:36.952Z,100767.62
2019-03-22T20:12:04.254Z,100768.38
2019-03-22T20:14:31.504Z,100770.77
2019-03-22T20:16:58.731Z,100769.37
2019-03-22T20:19:25.982Z,100775.81
2019-03-22T20:21:53.191Z,100775.58
2019-03-22T20:24:20.521Z,100779.80
2019-03-22T20:26:47.821Z,100774.48
2019-03-22T20:29:15.261Z,100771.70
2019-03-22T20:31:42.550Z,100775.31
2019-03-22T20:34:09.875Z,100776.77
2019-03-22T20:36:37.065Z,100773.30
2019-03-22T20:39:05.978Z,100773.33
2019-03-22T20:41:33.584Z,100770.53
2019-03-22T20:44:00.913Z,100762.97
2019-03-22T20:46:28.213Z,100778.30
2019-03-22T20:48:55.425Z,100772.11
2019-03-22T20:51:22.735Z,100773.10
2019-03-22T20:53:50.014Z,100768.98
2019-03-22T20:56:17.245Z,100775.03
2019-03-22T20:58:44.590Z,100771.09
2019-03-22T21:01:11.807Z,100772.78
2019-03-22T21:03:39.133Z,100773.01
2019-03-22T21:06:06.356Z,100768.63
2019-03-22T21:08:33.709Z,100771.09
2019-03-22T21:11:00.994Z,100761.11
2019-03-22T21:13:28.323Z,100766.03
2019-03-22T21:15:55.685Z,100774.88
2019-03-22T21:18:22.891Z,100769.85
2019-03-22T21:20:50.170Z,100765.17
2019-03-22T21:23:17.383Z,100770.41
2019-03-22T21:25:44.718Z,100767.76
2019-03-22T21:28:11.938Z,100763.53
2019-03-22T21:30:39.061Z,100765.94
2019-03-22T21:33:06.360Z,100765.78
2019-03-22T21:35:37.602Z,100769.34
2019-03-22T21:38:10.726Z,100762.83
2019-03-22T21:40:31.945Z,100758.56
2019-03-22T21:42:59.255Z,100763.36
2019-03-22T21:45:26.471Z,100766.91
2019-03-22T21:47:53.677Z,100757.09
2019-03-22T21:50:21.330Z,100754.20
2019-03-22T21:52:48.480Z,100749.42
2019-03-22T21:55:15.812Z,100756.78
2019-03-22T21:57:43.031Z,100749.33
2019-03-22T22:00:10.674Z,100750.75
2019-03-22T22:02:38.020Z,100752.06
2019-03-22T22:05:06.362Z,100751.16
2019-03-22T22:07:33.662Z,100757.84
2019-03-22T22:10:00.984Z,100750.91
2019-03-22T22:12:29.873Z,100744.55
2019-03-22T22:14:57.219Z,100741.96
2019-03-22T22:17:24.516Z,100744.53
2019-03-22T22:19:51.759Z,100737.52
2019-03-22T22:22:19.077Z,100740.95
2019-03-22T22:24:46.401Z,100736.95
2019-03-22T22:27:14.346Z,100728.37
2019-03-22T22:29:41.700Z,100730.25
2019-03-22T22:32:09.016Z,100730.55
2019-03-22T22:34:36.269Z,100725.22
2019-03-22T22:37:03.595Z,100733.31
2019-03-22T22:39:30.940Z,100729.66
2019-03-22T22:41:58.168Z,100737.32
2019-03-22T22:44:25.431Z,100732.61
2019-03-22T22:46:52.761Z,100724.98
2019-03-22T22:49:20.094Z,100729.09
2019-03-22T22:51:47.410Z,100726.71
2019-03-22T22:54:14.710Z,100727.94
2019-03-22T22:56:41.959Z,100722.49
2019-03-22T22:59:09.277Z,100713.73
2019-03-22T23:01:36.490Z,100720.88
2019-03-22T23:04:03.808Z,100710.25
2019-03-22T23:06:31.345Z,100700.10
2019-03-22T23:08:58.568Z,100700.01
2019-03-22T23:11:26.100Z,100699.92
2019-03-22T23:13:53.302Z,100693.78
2019-03-22T23:16:20.531Z,100699.51
2019-03-22T23:18:47.840Z,100697.14
2019-03-22T23:21:15.175Z,100689.28
2019-03-22T23:23:42.437Z,100696.97
2019-03-22T23:26:09.773Z,100690.75
2019-03-22T23:28:37.103Z,100695.72
2019-03-22T23:31:04.335Z,100687.16
2019-03-22T23:33:31.643Z,100688.59
2019-03-22T23:35:58.974Z,100688.77
2019-03-22T23:38:26.306Z,100691.23
2019-03-22T23:40:53.611Z,100683.96
2019-03-22T23:43:20.734Z,100691.11
2019-03-22T23:45:47.965Z,100689.91
2019-03-22T23:48:15.167Z,100686.44
2019-03-22T23:50:42.391Z,100695.86
2019-03-22T23:53:09.604Z,100678.20
2019-03-22T23:55:36.935Z,100687.40
2019-03-22T23:58:04.529Z,100684.08
